AZA261 EGCC-LIMC
Flight info
| Callsign | AZA261 |
|---|---|
| Flight time | N/A |
| Altitude | 35000 |
| Route | LISTO L612 HON/N0439F350 L15 BIG UL9 KONAN DCT KOK DCT CIV DCT SUTAL DCT GTQ DCT OBORN DCT DEVDI DCT BASGO/N0449F290 Z424 AKASU/N0359F190 Z424 RIXUV |
| Aircraft | MD82/M-SDFGIRWY/S |
Departure
| Time | N/A |
|---|---|
| Airport | Manchester Airport (EGCC) |
Arrival
| Time | 2026-05-03 20:56 |
|---|---|
| Airport | Milan Malpensa International Airport (LIMC) |
| Time | Latitude | Longitude | Altitude | Speed | Heading |
|---|---|---|---|---|---|
| 2026-05-03 20:15 | 49.08391 | 6.65028 | 35000 ft | 425 kts | 160° |
| 2026-05-03 20:15 | 49.02973 | 6.68676 | 35010 ft | 426 kts | 160° |
| 2026-05-03 20:16 | 48.97597 | 6.72405 | 35010 ft | 428 kts | 156° |
| 2026-05-03 20:16 | 48.92473 | 6.77125 | 35002 ft | 432 kts | 152° |
| 2026-05-03 20:17 | 48.87407 | 6.82057 | 34989 ft | 432 kts | 152° |
| 2026-05-03 20:17 | 48.82307 | 6.86905 | 35011 ft | 432 kts | 153° |
| 2026-05-03 20:18 | 48.77181 | 6.91672 | 35015 ft | 432 kts | 153° |
| 2026-05-03 20:18 | 48.72084 | 6.96379 | 35016 ft | 431 kts | 153° |
| 2026-05-03 20:19 | 48.66970 | 7.01105 | 35010 ft | 429 kts | 153° |
| 2026-05-03 20:19 | 48.61873 | 7.05808 | 35017 ft | 428 kts | 153° |
| 2026-05-03 20:20 | 48.56779 | 7.10485 | 35022 ft | 429 kts | 153° |
| 2026-05-03 20:20 | 48.51676 | 7.15160 | 35022 ft | 429 kts | 153° |
| 2026-05-03 20:21 | 48.46599 | 7.19792 | 35022 ft | 427 kts | 157° |
| 2026-05-03 20:21 | 48.41099 | 7.22858 | 35018 ft | 421 kts | 167° |
| 2026-05-03 20:22 | 48.35465 | 7.25390 | 35024 ft | 424 kts | 167° |
| 2026-05-03 20:22 | 48.29810 | 7.28008 | 35022 ft | 425 kts | 166° |
| 2026-05-03 20:23 | 48.24175 | 7.30722 | 35011 ft | 423 kts | 166° |
| 2026-05-03 20:23 | 48.18602 | 7.33440 | 35009 ft | 420 kts | 166° |
| 2026-05-03 20:24 | 48.13019 | 7.36141 | 35019 ft | 423 kts | 166° |
| 2026-05-03 20:24 | 48.07386 | 7.38846 | 35020 ft | 425 kts | 166° |
| 2026-05-03 20:25 | 48.01785 | 7.41527 | 35021 ft | 424 kts | 167° |
| 2026-05-03 20:25 | 47.96168 | 7.44208 | 35017 ft | 423 kts | 167° |
| 2026-05-03 20:26 | 47.90551 | 7.46883 | 35029 ft | 424 kts | 167° |
| 2026-05-03 20:26 | 47.84909 | 7.49564 | 35036 ft | 425 kts | 167° |
| 2026-05-03 20:27 | 47.79262 | 7.52241 | 35046 ft | 426 kts | 167° |
| 2026-05-03 20:27 | 47.73652 | 7.54915 | 35045 ft | 427 kts | 165° |
| 2026-05-03 20:28 | 47.68144 | 7.58304 | 35034 ft | 429 kts | 160° |
| 2026-05-03 20:28 | 47.62696 | 7.61978 | 35045 ft | 431 kts | 160° |
| 2026-05-03 20:29 | 47.57216 | 7.65616 | 35046 ft | 431 kts | 160° |
| 2026-05-03 20:29 | 47.51705 | 7.69186 | 35042 ft | 432 kts | 161° |
| 2026-05-03 20:30 | 47.46189 | 7.72720 | 35049 ft | 432 kts | 161° |
| 2026-05-03 20:30 | 47.40703 | 7.76231 | 35054 ft | 432 kts | 161° |
| 2026-05-03 20:31 | 47.35179 | 7.79767 | 35062 ft | 433 kts | 161° |
| 2026-05-03 20:31 | 47.29638 | 7.83293 | 35059 ft | 434 kts | 161° |
| 2026-05-03 20:32 | 47.24113 | 7.86803 | 35060 ft | 434 kts | 161° |
| 2026-05-03 20:32 | 47.18586 | 7.90319 | 35061 ft | 432 kts | 161° |
| 2026-05-03 20:33 | 47.13082 | 7.93818 | 35061 ft | 431 kts | 161° |
| 2026-05-03 20:33 | 47.07560 | 7.97313 | 35064 ft | 433 kts | 161° |
| 2026-05-03 20:34 | 47.02006 | 8.00823 | 35062 ft | 435 kts | 161° |
| 2026-05-03 20:34 | 46.96439 | 8.04337 | 35074 ft | 434 kts | 161° |
| 2026-05-03 20:35 | 46.90898 | 8.07810 | 35061 ft | 432 kts | 161° |
| 2026-05-03 20:35 | 46.85372 | 8.11269 | 35070 ft | 432 kts | 161° |
| 2026-05-03 20:36 | 46.79869 | 8.14706 | 35076 ft | 434 kts | 161° |
| 2026-05-03 20:36 | 46.74299 | 8.18181 | 35074 ft | 436 kts | 161° |
| 2026-05-03 20:37 | 46.68713 | 8.21670 | 35061 ft | 435 kts | 161° |
| 2026-05-03 20:37 | 46.63153 | 8.25153 | 35061 ft | 434 kts | 161° |
| 2026-05-03 20:38 | 46.57624 | 8.28572 | 35071 ft | 435 kts | 161° |
| 2026-05-03 20:38 | 46.52035 | 8.32023 | 35085 ft | 437 kts | 161° |
| 2026-05-03 20:39 | 46.46451 | 8.35488 | 35105 ft | 435 kts | 161° |
| 2026-05-03 20:39 | 46.40900 | 8.38916 | 35125 ft | 433 kts | 161° |
| 2026-05-03 20:40 | 46.35361 | 8.42319 | 34639 ft | 430 kts | 161° |
| 2026-05-03 20:40 | 46.32594 | 8.44016 | 33737 ft | 433 kts | 161° |
| 2026-05-03 20:40 | 46.29796 | 8.45723 | 32625 ft | 439 kts | 161° |
| 2026-05-03 20:40 | 46.26920 | 8.47258 | 31511 ft | 441 kts | 171° |
| 2026-05-03 20:41 | 46.23883 | 8.47941 | 30389 ft | 443 kts | 177° |
| 2026-05-03 20:41 | 46.20787 | 8.48317 | 29178 ft | 447 kts | 178° |
| 2026-05-03 20:41 | 46.17671 | 8.48651 | 27914 ft | 451 kts | 178° |
| 2026-05-03 20:41 | 46.14576 | 8.48995 | 26795 ft | 453 kts | 178° |
| 2026-05-03 20:42 | 46.11429 | 8.49427 | 25853 ft | 453 kts | 173° |
| 2026-05-03 20:42 | 46.08394 | 8.50585 | 25140 ft | 449 kts | 163° |
| 2026-05-03 20:42 | 46.05482 | 8.52171 | 24432 ft | 444 kts | 161° |
| 2026-05-03 20:42 | 46.02619 | 8.53832 | 23611 ft | 442 kts | 161° |
| 2026-05-03 20:43 | 45.99775 | 8.55473 | 22719 ft | 438 kts | 162° |
| 2026-05-03 20:43 | 45.96975 | 8.57058 | 22200 ft | 426 kts | 162° |
| 2026-05-03 20:43 | 45.95158 | 8.58071 | 21739 ft | 421 kts | 162° |
| 2026-05-03 20:43 | 45.91494 | 8.60067 | 20506 ft | 420 kts | 162° |
| 2026-05-03 20:44 | 45.89680 | 8.61046 | 19929 ft | 420 kts | 162° |
| 2026-05-03 20:44 | 45.86996 | 8.62645 | 19217 ft | 416 kts | 159° |
| 2026-05-03 20:44 | 45.84369 | 8.64349 | 18498 ft | 412 kts | 158° |
| 2026-05-03 20:44 | 45.81789 | 8.66073 | 17759 ft | 406 kts | 158° |
| 2026-05-03 20:45 | 45.79246 | 8.67779 | 16963 ft | 401 kts | 158° |
| 2026-05-03 20:45 | 45.76728 | 8.69459 | 16232 ft | 396 kts | 158° |
| 2026-05-03 20:45 | 45.74244 | 8.71102 | 15535 ft | 391 kts | 158° |
| 2026-05-03 20:45 | 45.71791 | 8.72711 | 14854 ft | 385 kts | 158° |
| 2026-05-03 20:46 | 45.69366 | 8.74288 | 14169 ft | 380 kts | 158° |
| 2026-05-03 20:46 | 45.67005 | 8.75816 | 13463 ft | 374 kts | 158° |
| 2026-05-03 20:46 | 45.64645 | 8.77336 | 12676 ft | 370 kts | 158° |
| 2026-05-03 20:46 | 45.62306 | 8.78839 | 11925 ft | 366 kts | 158° |
| 2026-05-03 20:47 | 45.59998 | 8.80321 | 11170 ft | 362 kts | 158° |
| 2026-05-03 20:47 | 45.57715 | 8.81789 | 10525 ft | 356 kts | 157° |
| 2026-05-03 20:47 | 45.55511 | 8.83212 | 10266 ft | 339 kts | 157° |
| 2026-05-03 20:47 | 45.53414 | 8.84569 | 9934 ft | 324 kts | 157° |
| 2026-05-03 20:48 | 45.51395 | 8.85874 | 9541 ft | 312 kts | 157° |
| 2026-05-03 20:48 | 45.49450 | 8.87130 | 9140 ft | 302 kts | 157° |
| 2026-05-03 20:48 | 45.47543 | 8.88354 | 8619 ft | 298 kts | 157° |
| 2026-05-03 20:48 | 45.45665 | 8.89559 | 8111 ft | 294 kts | 156° |
| 2026-05-03 20:49 | 45.43810 | 8.90745 | 7615 ft | 290 kts | 156° |
| 2026-05-03 20:49 | 45.41948 | 8.91839 | 7101 ft | 287 kts | 166° |
| 2026-05-03 20:49 | 45.40010 | 8.91925 | 6641 ft | 284 kts | 194° |
| 2026-05-03 20:49 | 45.38301 | 8.90638 | 6381 ft | 277 kts | 223° |
| 2026-05-03 20:50 | 45.37270 | 8.88395 | 6124 ft | 271 kts | 251° |
| 2026-05-03 20:50 | 45.37045 | 8.85773 | 5869 ft | 266 kts | 271° |
| 2026-05-03 20:50 | 45.37497 | 8.83264 | 5613 ft | 263 kts | 300° |
| 2026-05-03 20:50 | 45.38714 | 8.81402 | 5360 ft | 256 kts | 325° |
| 2026-05-03 20:51 | 45.40251 | 8.80136 | 5120 ft | 252 kts | 336° |
| 2026-05-03 20:51 | 45.41862 | 8.79310 | 4823 ft | 242 kts | 346° |
| 2026-05-03 20:51 | 45.43455 | 8.78766 | 4555 ft | 228 kts | 348° |
| 2026-05-03 20:51 | 45.44962 | 8.78318 | 4228 ft | 215 kts | 349° |
| 2026-05-03 20:52 | 45.46393 | 8.77930 | 3925 ft | 203 kts | 350° |
| 2026-05-03 20:52 | 45.47755 | 8.77558 | 3620 ft | 197 kts | 349° |
| 2026-05-03 20:52 | 45.49086 | 8.77182 | 3324 ft | 193 kts | 349° |
| 2026-05-03 20:52 | 45.50395 | 8.76832 | 3027 ft | 189 kts | 349° |
| 2026-05-03 20:53 | 45.51662 | 8.76490 | 2739 ft | 180 kts | 348° |
| 2026-05-03 20:53 | 45.52841 | 8.76161 | 2533 ft | 165 kts | 348° |
| 2026-05-03 20:53 | 45.53911 | 8.75870 | 2279 ft | 153 kts | 347° |
| 2026-05-03 20:53 | 45.54939 | 8.75580 | 2016 ft | 149 kts | 347° |
| 2026-05-03 20:54 | 45.55943 | 8.75308 | 1829 ft | 145 kts | 346° |
| 2026-05-03 20:54 | 45.57905 | 8.74759 | 1423 ft | 142 kts | 347° |
| 2026-05-03 20:54 | 45.58863 | 8.74491 | 1277 ft | 141 kts | 347° |
| 2026-05-03 20:55 | 45.59832 | 8.74227 | 1108 ft | 140 kts | 347° |
| 2026-05-03 20:55 | 45.60785 | 8.73973 | 922 ft | 141 kts | 347° |
| 2026-05-03 20:55 | 45.61717 | 8.73713 | 755 ft | 140 kts | 347° |
| 2026-05-03 20:55 | 45.62587 | 8.73462 | 748 ft | 101 kts | 349° |
| 2026-05-03 20:56 | 45.63020 | 8.73337 | 742 ft | 36 kts | 344° |
| 2026-05-03 20:56 | 45.63187 | 8.73192 | 745 ft | 26 kts | 318° |
| 2026-05-03 20:56 | 45.63294 | 8.73000 | 749 ft | 24 kts | 304° |
| 2026-05-03 20:56 | 45.63385 | 8.72804 | 751 ft | 24 kts | 298° |
| 2026-05-03 20:57 | 45.63398 | 8.72575 | 750 ft | 24 kts | 260° |
| 2026-05-03 20:57 | 45.63366 | 8.72343 | 749 ft | 25 kts | 259° |
| 2026-05-03 20:57 | 45.63333 | 8.72097 | 747 ft | 24 kts | 259° |
| 2026-05-03 20:57 | 45.63304 | 8.71873 | 750 ft | 23 kts | 259° |
| 2026-05-03 20:58 | 45.63251 | 8.71675 | 749 ft | 21 kts | 205° |
| 2026-05-03 20:58 | 45.63112 | 8.71702 | 751 ft | 16 kts | 169° |
| 2026-05-03 20:58 | 45.63092 | 8.71708 | 753 ft | 1 kts | 169° |
| 2026-05-03 20:58 | 45.63077 | 8.71712 | 749 ft | 4 kts | 169° |
| 2026-05-03 20:59 | 45.63016 | 8.71728 | 750 ft | 14 kts | 169° |
| 2026-05-03 20:59 | 45.62909 | 8.71758 | 752 ft | 16 kts | 169° |
| 2026-05-03 20:59 | 45.62798 | 8.71789 | 752 ft | 17 kts | 169° |
| 2026-05-03 20:59 | 45.62683 | 8.71820 | 751 ft | 17 kts | 169° |
| 2026-05-03 21:00 | 45.62565 | 8.71853 | 752 ft | 17 kts | 169° |
| 2026-05-03 21:00 | 45.62486 | 8.71874 | 751 ft | 18 kts | 169° |
| 2026-05-03 21:00 | 45.62351 | 8.71884 | 750 ft | 11 kts | 218° |
| 2026-05-03 21:00 | 45.62290 | 8.71836 | 753 ft | 10 kts | 175° |
| 2026-05-03 21:01 | 45.62235 | 8.71850 | 751 ft | 3 kts | 168° |
| 2026-05-03 21:01 | 45.62231 | 8.71851 | 752 ft | 0 kts | 169° |